sensor_id;sensor_type;location;lat;lon;timestamp;P1;durP1;ratioP1;P2;durP2;ratioP2
9288;SDS011;4683;50.864;12.086;2023-08-06T00:00:53;6.63;;;6.00;;
9288;SDS011;4683;50.864;12.086;2023-08-06T00:03:25;5.87;;;5.27;;
9288;SDS011;4683;50.864;12.086;2023-08-06T00:05:59;5.50;;;5.00;;
9288;SDS011;4683;50.864;12.086;2023-08-06T00:08:33;8.23;;;5.27;;
9288;SDS011;4683;50.864;12.086;2023-08-06T00:11:03;5.87;;;4.73;;
9288;SDS011;4683;50.864;12.086;2023-08-06T00:13:39;5.07;;;4.57;;
9288;SDS011;4683;50.864;12.086;2023-08-06T00:16:14;5.17;;;4.67;;
9288;SDS011;4683;50.864;12.086;2023-08-06T00:18:50;4.37;;;3.97;;
9288;SDS011;4683;50.864;12.086;2023-08-06T00:21:25;4.73;;;4.30;;
9288;SDS011;4683;50.864;12.086;2023-08-06T00:24:02;4.50;;;3.67;;
9288;SDS011;4683;50.864;12.086;2023-08-06T00:26:33;4.00;;;2.90;;
9288;SDS011;4683;50.864;12.086;2023-08-06T00:29:09;3.53;;;3.23;;
9288;SDS011;4683;50.864;12.086;2023-08-06T00:31:39;2.60;;;2.40;;
9288;SDS011;4683;50.864;12.086;2023-08-06T00:34:14;2.77;;;2.53;;
9288;SDS011;4683;50.864;12.086;2023-08-06T00:36:44;3.00;;;2.70;;
9288;SDS011;4683;50.864;12.086;2023-08-06T00:39:17;3.20;;;2.30;;
9288;SDS011;4683;50.864;12.086;2023-08-06T00:41:47;2.40;;;2.07;;
9288;SDS011;4683;50.864;12.086;2023-08-06T00:44:22;2.27;;;2.10;;
9288;SDS011;4683;50.864;12.086;2023-08-06T00:46:54;1.97;;;1.87;;
9288;SDS011;4683;50.864;12.086;2023-08-06T00:49:32;2.43;;;1.90;;
9288;SDS011;4683;50.864;12.086;2023-08-06T00:52:08;2.00;;;1.90;;
9288;SDS011;4683;50.864;12.086;2023-08-06T00:58:02;1.67;;;1.57;;
9288;SDS011;4683;50.864;12.086;2023-08-06T01:00:40;2.07;;;1.87;;
9288;SDS011;4683;50.864;12.086;2023-08-06T01:03:10;2.33;;;1.50;;
9288;SDS011;4683;50.864;12.086;2023-08-06T01:05:40;1.87;;;1.77;;
9288;SDS011;4683;50.864;12.086;2023-08-06T01:08:17;1.70;;;1.60;;
9288;SDS011;4683;50.864;12.086;2023-08-06T01:11:02;2.07;;;1.80;;
9288;SDS011;4683;50.864;12.086;2023-08-06T01:13:42;2.20;;;1.87;;
9288;SDS011;4683;50.864;12.086;2023-08-06T01:16:20;1.80;;;1.70;;
9288;SDS011;4683;50.864;12.086;2023-08-06T01:18:54;2.67;;;1.57;;
9288;SDS011;4683;50.864;12.086;2023-08-06T01:21:27;2.53;;;1.90;;
9288;SDS011;4683;50.864;12.086;2023-08-06T01:24:01;2.00;;;1.53;;
9288;SDS011;4683;50.864;12.086;2023-08-06T01:26:36;1.70;;;1.60;;
9288;SDS011;4683;50.864;12.086;2023-08-06T01:29:15;2.10;;;2.00;;
9288;SDS011;4683;50.864;12.086;2023-08-06T01:31:52;2.37;;;2.17;;
9288;SDS011;4683;50.864;12.086;2023-08-06T01:34:25;2.20;;;1.60;;
9288;SDS011;4683;50.864;12.086;2023-08-06T01:37:02;1.47;;;1.40;;
9288;SDS011;4683;50.864;12.086;2023-08-06T01:39:35;1.90;;;1.80;;
9288;SDS011;4683;50.864;12.086;2023-08-06T01:42:14;1.90;;;1.80;;
9288;SDS011;4683;50.864;12.086;2023-08-06T01:44:45;2.10;;;2.00;;
9288;SDS011;4683;50.864;12.086;2023-08-06T01:47:17;2.17;;;1.77;;
9288;SDS011;4683;50.864;12.086;2023-08-06T01:49:45;2.23;;;2.03;;
9288;SDS011;4683;50.864;12.086;2023-08-06T01:52:19;1.80;;;1.70;;
9288;SDS011;4683;50.864;12.086;2023-08-06T01:54:50;1.90;;;1.80;;
9288;SDS011;4683;50.864;12.086;2023-08-06T01:57:24;2.37;;;2.10;;
9288;SDS011;4683;50.864;12.086;2023-08-06T01:59:53;2.07;;;1.90;;
9288;SDS011;4683;50.864;12.086;2023-08-06T02:02:26;2.17;;;2.00;;
9288;SDS011;4683;50.864;12.086;2023-08-06T02:04:58;2.53;;;1.87;;
9288;SDS011;4683;50.864;12.086;2023-08-06T02:07:33;1.80;;;1.70;;
9288;SDS011;4683;50.864;12.086;2023-08-06T02:10:07;1.97;;;1.87;;
9288;SDS011;4683;50.864;12.086;2023-08-06T02:12:38;1.97;;;1.77;;
9288;SDS011;4683;50.864;12.086;2023-08-06T02:15:08;2.03;;;1.93;;
9288;SDS011;4683;50.864;12.086;2023-08-06T02:17:38;2.00;;;1.90;;
9288;SDS011;4683;50.864;12.086;2023-08-06T02:20:13;1.80;;;1.70;;
9288;SDS011;4683;50.864;12.086;2023-08-06T02:22:49;2.30;;;2.20;;
9288;SDS011;4683;50.864;12.086;2023-08-06T02:25:22;1.87;;;1.77;;
9288;SDS011;4683;50.864;12.086;2023-08-06T02:27:53;2.17;;;2.00;;
9288;SDS011;4683;50.864;12.086;2023-08-06T02:30:22;3.30;;;2.40;;
9288;SDS011;4683;50.864;12.086;2023-08-06T02:32:54;2.50;;;2.30;;
9288;SDS011;4683;50.864;12.086;2023-08-06T02:35:27;2.50;;;2.30;;
9288;SDS011;4683;50.864;12.086;2023-08-06T02:37:58;2.23;;;2.10;;
9288;SDS011;4683;50.864;12.086;2023-08-06T02:40:30;3.23;;;2.20;;
9288;SDS011;4683;50.864;12.086;2023-08-06T02:43:02;4.03;;;2.80;;
9288;SDS011;4683;50.864;12.086;2023-08-06T02:45:34;2.60;;;2.20;;
9288;SDS011;4683;50.864;12.086;2023-08-06T02:48:07;1.97;;;1.80;;
9288;SDS011;4683;50.864;12.086;2023-08-06T02:50:38;1.77;;;1.67;;
9288;SDS011;4683;50.864;12.086;2023-08-06T02:53:11;2.50;;;2.30;;
9288;SDS011;4683;50.864;12.086;2023-08-06T02:55:45;2.20;;;2.00;;
9288;SDS011;4683;50.864;12.086;2023-08-06T02:58:17;2.10;;;2.00;;
9288;SDS011;4683;50.864;12.086;2023-08-06T03:01:00;2.50;;;2.30;;
9288;SDS011;4683;50.864;12.086;2023-08-06T03:07:06;3.10;;;2.30;;
9288;SDS011;4683;50.864;12.086;2023-08-06T03:09:41;3.17;;;2.13;;
9288;SDS011;4683;50.864;12.086;2023-08-06T03:12:13;2.10;;;1.90;;
9288;SDS011;4683;50.864;12.086;2023-08-06T03:14:45;2.43;;;2.23;;
9288;SDS011;4683;50.864;12.086;2023-08-06T03:17:17;2.13;;;2.03;;
9288;SDS011;4683;50.864;12.086;2023-08-06T03:19:50;2.23;;;2.13;;
9288;SDS011;4683;50.864;12.086;2023-08-06T03:22:21;2.43;;;2.30;;
9288;SDS011;4683;50.864;12.086;2023-08-06T03:24:52;3.00;;;2.50;;
9288;SDS011;4683;50.864;12.086;2023-08-06T03:27:26;2.50;;;2.30;;
9288;SDS011;4683;50.864;12.086;2023-08-06T03:30:02;2.20;;;2.07;;
9288;SDS011;4683;50.864;12.086;2023-08-06T03:32:38;2.90;;;2.63;;
9288;SDS011;4683;50.864;12.086;2023-08-06T03:35:10;3.57;;;2.40;;
9288;SDS011;4683;50.864;12.086;2023-08-06T03:37:41;3.13;;;2.87;;
9288;SDS011;4683;50.864;12.086;2023-08-06T03:40:14;2.80;;;2.60;;
9288;SDS011;4683;50.864;12.086;2023-08-06T03:42:48;3.03;;;2.47;;
9288;SDS011;4683;50.864;12.086;2023-08-06T03:45:17;4.37;;;2.40;;
9288;SDS011;4683;50.864;12.086;2023-08-06T03:47:48;2.87;;;2.53;;
9288;SDS011;4683;50.864;12.086;2023-08-06T03:50:23;2.30;;;2.20;;
9288;SDS011;4683;50.864;12.086;2023-08-06T03:52:55;2.23;;;2.13;;
9288;SDS011;4683;50.864;12.086;2023-08-06T03:55:30;2.37;;;2.17;;
9288;SDS011;4683;50.864;12.086;2023-08-06T03:58:03;2.57;;;2.37;;
9288;SDS011;4683;50.864;12.086;2023-08-06T04:00:33;2.10;;;2.00;;
9288;SDS011;4683;50.864;12.086;2023-08-06T04:03:07;5.97;;;2.50;;
9288;SDS011;4683;50.864;12.086;2023-08-06T04:05:39;3.87;;;2.37;;
9288;SDS011;4683;50.864;12.086;2023-08-06T04:08:12;3.10;;;2.57;;
9288;SDS011;4683;50.864;12.086;2023-08-06T04:10:48;2.47;;;2.27;;
9288;SDS011;4683;50.864;12.086;2023-08-06T04:13:21;2.80;;;2.50;;
9288;SDS011;4683;50.864;12.086;2023-08-06T04:15:53;2.90;;;2.53;;
9288;SDS011;4683;50.864;12.086;2023-08-06T04:18:26;5.07;;;2.87;;
9288;SDS011;4683;50.864;12.086;2023-08-06T04:20:59;3.23;;;2.80;;
9288;SDS011;4683;50.864;12.086;2023-08-06T04:23:32;2.70;;;2.50;;
9288;SDS011;4683;50.864;12.086;2023-08-06T04:26:07;3.13;;;2.60;;
9288;SDS011;4683;50.864;12.086;2023-08-06T04:28:41;2.80;;;2.60;;
9288;SDS011;4683;50.864;12.086;2023-08-06T04:31:14;2.77;;;2.57;;
9288;SDS011;4683;50.864;12.086;2023-08-06T04:33:49;4.77;;;2.63;;
9288;SDS011;4683;50.864;12.086;2023-08-06T04:36:23;3.03;;;2.53;;
9288;SDS011;4683;50.864;12.086;2023-08-06T04:38:57;3.83;;;2.80;;
9288;SDS011;4683;50.864;12.086;2023-08-06T04:41:33;2.73;;;2.53;;
9288;SDS011;4683;50.864;12.086;2023-08-06T04:44:08;3.03;;;2.50;;
9288;SDS011;4683;50.864;12.086;2023-08-06T04:46:38;3.87;;;2.47;;
9288;SDS011;4683;50.864;12.086;2023-08-06T04:49:14;4.97;;;2.70;;
9288;SDS011;4683;50.864;12.086;2023-08-06T04:51:46;3.70;;;2.77;;
9288;SDS011;4683;50.864;12.086;2023-08-06T04:54:18;2.63;;;2.40;;
9288;SDS011;4683;50.864;12.086;2023-08-06T04:56:50;2.80;;;2.60;;
9288;SDS011;4683;50.864;12.086;2023-08-06T04:59:23;3.43;;;2.70;;
9288;SDS011;4683;50.864;12.086;2023-08-06T05:01:57;3.13;;;2.93;;
9288;SDS011;4683;50.864;12.086;2023-08-06T05:08:30;2.47;;;2.33;;
9288;SDS011;4683;50.864;12.086;2023-08-06T05:11:04;2.37;;;2.27;;
9288;SDS011;4683;50.864;12.086;2023-08-06T05:13:35;2.60;;;2.40;;
9288;SDS011;4683;50.864;12.086;2023-08-06T05:16:07;2.70;;;2.50;;
9288;SDS011;4683;50.864;12.086;2023-08-06T05:18:39;3.43;;;2.40;;
9288;SDS011;4683;50.864;12.086;2023-08-06T05:21:11;2.37;;;2.17;;
9288;SDS011;4683;50.864;12.086;2023-08-06T05:23:43;3.27;;;2.93;;
9288;SDS011;4683;50.864;12.086;2023-08-06T05:26:14;3.53;;;2.90;;
9288;SDS011;4683;50.864;12.086;2023-08-06T05:28:50;3.03;;;2.63;;
9288;SDS011;4683;50.864;12.086;2023-08-06T05:31:21;3.83;;;2.70;;
9288;SDS011;4683;50.864;12.086;2023-08-06T05:33:54;2.90;;;2.70;;
9288;SDS011;4683;50.864;12.086;2023-08-06T05:36:30;2.93;;;2.60;;
9288;SDS011;4683;50.864;12.086;2023-08-06T05:39:01;3.07;;;2.57;;
9288;SDS011;4683;50.864;12.086;2023-08-06T05:41:33;2.83;;;2.63;;
9288;SDS011;4683;50.864;12.086;2023-08-06T05:44:08;2.63;;;2.43;;
9288;SDS011;4683;50.864;12.086;2023-08-06T05:46:40;3.93;;;2.57;;
9288;SDS011;4683;50.864;12.086;2023-08-06T05:49:18;3.00;;;2.77;;
9288;SDS011;4683;50.864;12.086;2023-08-06T05:51:51;3.00;;;2.80;;
9288;SDS011;4683;50.864;12.086;2023-08-06T05:54:26;2.97;;;2.77;;
9288;SDS011;4683;50.864;12.086;2023-08-06T05:57:06;3.13;;;2.80;;
9288;SDS011;4683;50.864;12.086;2023-08-06T05:59:46;4.20;;;2.63;;
9288;SDS011;4683;50.864;12.086;2023-08-06T06:02:24;2.70;;;2.50;;
9288;SDS011;4683;50.864;12.086;2023-08-06T06:04:59;3.37;;;2.80;;
9288;SDS011;4683;50.864;12.086;2023-08-06T06:07:31;2.80;;;2.60;;
9288;SDS011;4683;50.864;12.086;2023-08-06T06:10:06;3.13;;;2.93;;
9288;SDS011;4683;50.864;12.086;2023-08-06T06:12:43;3.00;;;2.80;;
9288;SDS011;4683;50.864;12.086;2023-08-06T06:15:18;3.40;;;3.10;;
9288;SDS011;4683;50.864;12.086;2023-08-06T06:17:51;3.23;;;2.90;;
9288;SDS011;4683;50.864;12.086;2023-08-06T06:20:22;2.87;;;2.67;;
9288;SDS011;4683;50.864;12.086;2023-08-06T06:22:52;2.80;;;2.60;;
9288;SDS011;4683;50.864;12.086;2023-08-06T06:25:31;3.40;;;3.10;;
9288;SDS011;4683;50.864;12.086;2023-08-06T06:28:04;3.13;;;2.90;;
9288;SDS011;4683;50.864;12.086;2023-08-06T06:30:50;5.90;;;3.10;;
9288;SDS011;4683;50.864;12.086;2023-08-06T06:33:26;3.10;;;2.90;;
9288;SDS011;4683;50.864;12.086;2023-08-06T06:36:00;3.00;;;2.80;;
9288;SDS011;4683;50.864;12.086;2023-08-06T06:38:39;3.37;;;3.17;;
9288;SDS011;4683;50.864;12.086;2023-08-06T06:41:10;3.37;;;2.77;;
9288;SDS011;4683;50.864;12.086;2023-08-06T06:43:45;3.20;;;3.00;;
9288;SDS011;4683;50.864;12.086;2023-08-06T06:46:25;4.03;;;3.20;;
9288;SDS011;4683;50.864;12.086;2023-08-06T06:49:00;3.60;;;3.13;;
9288;SDS011;4683;50.864;12.086;2023-08-06T06:51:32;2.90;;;2.67;;
9288;SDS011;4683;50.864;12.086;2023-08-06T06:54:10;3.43;;;3.13;;
9288;SDS011;4683;50.864;12.086;2023-08-06T06:56:42;3.33;;;3.03;;
9288;SDS011;4683;50.864;12.086;2023-08-06T06:59:14;3.30;;;3.00;;
9288;SDS011;4683;50.864;12.086;2023-08-06T07:01:45;3.20;;;3.00;;
9288;SDS011;4683;50.864;12.086;2023-08-06T07:04:19;3.03;;;2.73;;
9288;SDS011;4683;50.864;12.086;2023-08-06T07:06:49;3.10;;;2.90;;
9288;SDS011;4683;50.864;12.086;2023-08-06T07:09:22;2.97;;;2.77;;
9288;SDS011;4683;50.864;12.086;2023-08-06T07:11:57;3.40;;;3.10;;
9288;SDS011;4683;50.864;12.086;2023-08-06T07:14:36;3.70;;;3.30;;
9288;SDS011;4683;50.864;12.086;2023-08-06T07:17:11;3.37;;;2.90;;
9288;SDS011;4683;50.864;12.086;2023-08-06T07:19:45;3.60;;;3.00;;
9288;SDS011;4683;50.864;12.086;2023-08-06T07:22:21;3.43;;;3.13;;
9288;SDS011;4683;50.864;12.086;2023-08-06T07:24:55;2.87;;;2.50;;
9288;SDS011;4683;50.864;12.086;2023-08-06T07:27:34;2.90;;;2.60;;
9288;SDS011;4683;50.864;12.086;2023-08-06T07:30:09;2.90;;;2.70;;
9288;SDS011;4683;50.864;12.086;2023-08-06T07:32:42;3.20;;;2.83;;
9288;SDS011;4683;50.864;12.086;2023-08-06T07:35:22;3.33;;;3.03;;
9288;SDS011;4683;50.864;12.086;2023-08-06T07:37:54;2.83;;;2.63;;
9288;SDS011;4683;50.864;12.086;2023-08-06T07:40:25;2.80;;;2.60;;
9288;SDS011;4683;50.864;12.086;2023-08-06T07:43:01;3.10;;;2.90;;
9288;SDS011;4683;50.864;12.086;2023-08-06T07:45:36;2.73;;;2.53;;
9288;SDS011;4683;50.864;12.086;2023-08-06T07:48:08;2.93;;;2.73;;
9288;SDS011;4683;50.864;12.086;2023-08-06T07:50:38;2.90;;;2.70;;
9288;SDS011;4683;50.864;12.086;2023-08-06T07:53:10;2.60;;;2.33;;
9288;SDS011;4683;50.864;12.086;2023-08-06T07:55:47;2.80;;;2.60;;
9288;SDS011;4683;50.864;12.086;2023-08-06T07:58:26;2.43;;;2.30;;
9288;SDS011;4683;50.864;12.086;2023-08-06T08:01:01;2.63;;;2.43;;
9288;SDS011;4683;50.864;12.086;2023-08-06T08:03:44;2.33;;;2.23;;
9288;SDS011;4683;50.864;12.086;2023-08-06T08:06:17;3.20;;;2.60;;
9288;SDS011;4683;50.864;12.086;2023-08-06T08:08:51;3.43;;;2.37;;
9288;SDS011;4683;50.864;12.086;2023-08-06T08:11:27;2.60;;;2.37;;
9288;SDS011;4683;50.864;12.086;2023-08-06T08:14:01;2.23;;;2.13;;
9288;SDS011;4683;50.864;12.086;2023-08-06T08:16:32;2.50;;;2.30;;
9288;SDS011;4683;50.864;12.086;2023-08-06T08:19:08;2.33;;;2.23;;
9288;SDS011;4683;50.864;12.086;2023-08-06T08:21:40;2.60;;;2.40;;
9288;SDS011;4683;50.864;12.086;2023-08-06T08:24:17;2.03;;;1.93;;
9288;SDS011;4683;50.864;12.086;2023-08-06T08:26:48;2.47;;;2.37;;
9288;SDS011;4683;50.864;12.086;2023-08-06T08:29:26;2.73;;;2.40;;
9288;SDS011;4683;50.864;12.086;2023-08-06T08:32:01;2.40;;;2.10;;
9288;SDS011;4683;50.864;12.086;2023-08-06T08:34:34;2.50;;;2.40;;
9288;SDS011;4683;50.864;12.086;2023-08-06T08:37:05;2.33;;;2.10;;
9288;SDS011;4683;50.864;12.086;2023-08-06T08:39:38;2.33;;;2.23;;
9288;SDS011;4683;50.864;12.086;2023-08-06T08:42:11;2.70;;;2.50;;
9288;SDS011;4683;50.864;12.086;2023-08-06T08:44:49;2.43;;;2.23;;
9288;SDS011;4683;50.864;12.086;2023-08-06T08:47:19;2.57;;;2.37;;
9288;SDS011;4683;50.864;12.086;2023-08-06T08:49:54;2.67;;;2.47;;
9288;SDS011;4683;50.864;12.086;2023-08-06T08:52:26;2.27;;;2.07;;
9288;SDS011;4683;50.864;12.086;2023-08-06T08:55:01;2.67;;;2.47;;
9288;SDS011;4683;50.864;12.086;2023-08-06T08:57:34;3.47;;;2.30;;
9288;SDS011;4683;50.864;12.086;2023-08-06T09:00:05;2.50;;;2.30;;
9288;SDS011;4683;50.864;12.086;2023-08-06T09:02:40;2.43;;;2.27;;
9288;SDS011;4683;50.864;12.086;2023-08-06T09:05:17;2.30;;;2.20;;
9288;SDS011;4683;50.864;12.086;2023-08-06T09:07:50;2.10;;;2.00;;
9288;SDS011;4683;50.864;12.086;2023-08-06T09:10:24;2.20;;;2.00;;
9288;SDS011;4683;50.864;12.086;2023-08-06T09:12:57;2.30;;;2.20;;
9288;SDS011;4683;50.864;12.086;2023-08-06T09:15:39;3.37;;;2.07;;
9288;SDS011;4683;50.864;12.086;2023-08-06T09:18:25;2.77;;;2.57;;
9288;SDS011;4683;50.864;12.086;2023-08-06T09:20:59;2.53;;;2.33;;
9288;SDS011;4683;50.864;12.086;2023-08-06T09:23:35;3.30;;;2.67;;
9288;SDS011;4683;50.864;12.086;2023-08-06T09:26:14;2.20;;;2.00;;
9288;SDS011;4683;50.864;12.086;2023-08-06T09:28:47;4.00;;;2.53;;
9288;SDS011;4683;50.864;12.086;2023-08-06T09:31:19;2.53;;;2.30;;
9288;SDS011;4683;50.864;12.086;2023-08-06T09:34:06;2.60;;;2.10;;
9288;SDS011;4683;50.864;12.086;2023-08-06T09:36:43;2.37;;;2.20;;
9288;SDS011;4683;50.864;12.086;2023-08-06T09:39:20;3.53;;;2.20;;
9288;SDS011;4683;50.864;12.086;2023-08-06T09:41:55;2.57;;;2.40;;
9288;SDS011;4683;50.864;12.086;2023-08-06T09:44:30;2.43;;;2.23;;
9288;SDS011;4683;50.864;12.086;2023-08-06T09:47:12;2.10;;;1.97;;
9288;SDS011;4683;50.864;12.086;2023-08-06T09:49:59;2.20;;;2.10;;
9288;SDS011;4683;50.864;12.086;2023-08-06T09:52:33;2.50;;;2.30;;
9288;SDS011;4683;50.864;12.086;2023-08-06T09:55:10;2.70;;;2.50;;
9288;SDS011;4683;50.864;12.086;2023-08-06T09:57:43;2.47;;;2.27;;
9288;SDS011;4683;50.864;12.086;2023-08-06T10:00:23;2.27;;;2.10;;
9288;SDS011;4683;50.864;12.086;2023-08-06T10:02:59;2.53;;;2.10;;
9288;SDS011;4683;50.864;12.086;2023-08-06T10:05:34;3.20;;;2.50;;
9288;SDS011;4683;50.864;12.086;2023-08-06T10:08:16;2.70;;;2.30;;
9288;SDS011;4683;50.864;12.086;2023-08-06T10:10:48;1.93;;;1.83;;
9288;SDS011;4683;50.864;12.086;2023-08-06T10:13:20;2.40;;;2.17;;
9288;SDS011;4683;50.864;12.086;2023-08-06T10:15:57;2.53;;;2.33;;
9288;SDS011;4683;50.864;12.086;2023-08-06T10:18:30;2.60;;;2.40;;
9288;SDS011;4683;50.864;12.086;2023-08-06T10:21:06;2.10;;;2.00;;
9288;SDS011;4683;50.864;12.086;2023-08-06T10:23:40;2.53;;;2.33;;
9288;SDS011;4683;50.864;12.086;2023-08-06T10:26:17;2.23;;;2.07;;
9288;SDS011;4683;50.864;12.086;2023-08-06T10:28:48;1.77;;;1.67;;
9288;SDS011;4683;50.864;12.086;2023-08-06T10:34:59;2.10;;;1.90;;
9288;SDS011;4683;50.864;12.086;2023-08-06T10:37:38;2.63;;;2.30;;
9288;SDS011;4683;50.864;12.086;2023-08-06T10:40:09;2.30;;;2.10;;
9288;SDS011;4683;50.864;12.086;2023-08-06T10:42:45;4.00;;;2.43;;
9288;SDS011;4683;50.864;12.086;2023-08-06T10:45:17;4.07;;;2.83;;
9288;SDS011;4683;50.864;12.086;2023-08-06T10:47:50;2.40;;;2.20;;
9288;SDS011;4683;50.864;12.086;2023-08-06T10:50:27;2.47;;;2.27;;
9288;SDS011;4683;50.864;12.086;2023-08-06T10:53:06;1.83;;;1.73;;
9288;SDS011;4683;50.864;12.086;2023-08-06T10:55:49;2.17;;;2.00;;
9288;SDS011;4683;50.864;12.086;2023-08-06T10:58:23;2.23;;;2.00;;
9288;SDS011;4683;50.864;12.086;2023-08-06T11:01:03;2.43;;;2.23;;
9288;SDS011;4683;50.864;12.086;2023-08-06T11:03:48;2.40;;;2.20;;
9288;SDS011;4683;50.864;12.086;2023-08-06T11:06:23;3.20;;;1.97;;
9288;SDS011;4683;50.864;12.086;2023-08-06T11:08:54;2.13;;;1.97;;
9288;SDS011;4683;50.864;12.086;2023-08-06T11:11:39;2.50;;;2.30;;
9288;SDS011;4683;50.864;12.086;2023-08-06T11:14:14;2.47;;;2.37;;
9288;SDS011;4683;50.864;12.086;2023-08-06T11:16:50;3.03;;;2.40;;
9288;SDS011;4683;50.864;12.086;2023-08-06T11:19:30;2.80;;;2.43;;
9288;SDS011;4683;50.864;12.086;2023-08-06T11:22:08;2.57;;;2.37;;
9288;SDS011;4683;50.864;12.086;2023-08-06T11:24:46;2.43;;;2.23;;
9288;SDS011;4683;50.864;12.086;2023-08-06T11:27:21;2.03;;;1.93;;
9288;SDS011;4683;50.864;12.086;2023-08-06T11:29:55;2.10;;;2.00;;
9288;SDS011;4683;50.864;12.086;2023-08-06T11:32:32;2.43;;;2.23;;
9288;SDS011;4683;50.864;12.086;2023-08-06T11:35:13;2.03;;;1.93;;
9288;SDS011;4683;50.864;12.086;2023-08-06T11:37:49;2.13;;;1.97;;
9288;SDS011;4683;50.864;12.086;2023-08-06T11:40:28;2.07;;;1.90;;
9288;SDS011;4683;50.864;12.086;2023-08-06T11:43:06;2.20;;;1.97;;
9288;SDS011;4683;50.864;12.086;2023-08-06T11:45:48;1.93;;;1.80;;
9288;SDS011;4683;50.864;12.086;2023-08-06T11:48:18;2.17;;;2.07;;
9288;SDS011;4683;50.864;12.086;2023-08-06T11:50:55;2.37;;;2.17;;
9288;SDS011;4683;50.864;12.086;2023-08-06T11:53:28;2.37;;;2.20;;
9288;SDS011;4683;50.864;12.086;2023-08-06T11:56:05;2.03;;;1.93;;
9288;SDS011;4683;50.864;12.086;2023-08-06T11:58:43;2.37;;;2.17;;
9288;SDS011;4683;50.864;12.086;2023-08-06T12:01:15;2.27;;;2.07;;
9288;SDS011;4683;50.864;12.086;2023-08-06T12:03:46;2.20;;;2.10;;
9288;SDS011;4683;50.864;12.086;2023-08-06T12:06:17;3.57;;;2.07;;
9288;SDS011;4683;50.864;12.086;2023-08-06T12:08:50;1.27;;;1.27;;
9288;SDS011;4683;50.864;12.086;2023-08-06T12:11:28;1.93;;;1.40;;
9288;SDS011;4683;50.864;12.086;2023-08-06T12:14:06;2.33;;;1.70;;
9288;SDS011;4683;50.864;12.086;2023-08-06T12:16:41;4.53;;;2.50;;
9288;SDS011;4683;50.864;12.086;2023-08-06T12:19:21;3.93;;;2.40;;
9288;SDS011;4683;50.864;12.086;2023-08-06T12:21:53;4.10;;;2.43;;
9288;SDS011;4683;50.864;12.086;2023-08-06T12:24:27;4.23;;;1.80;;
9288;SDS011;4683;50.864;12.086;2023-08-06T12:27:03;1.87;;;1.77;;
9288;SDS011;4683;50.864;12.086;2023-08-06T12:29:41;4.43;;;2.10;;
9288;SDS011;4683;50.864;12.086;2023-08-06T12:32:15;2.77;;;2.33;;
9288;SDS011;4683;50.864;12.086;2023-08-06T12:34:55;3.60;;;2.47;;
9288;SDS011;4683;50.864;12.086;2023-08-06T12:37:26;3.53;;;2.20;;
9288;SDS011;4683;50.864;12.086;2023-08-06T12:40:06;4.03;;;2.50;;
9288;SDS011;4683;50.864;12.086;2023-08-06T12:42:39;2.30;;;2.10;;
9288;SDS011;4683;50.864;12.086;2023-08-06T12:45:19;4.10;;;2.10;;
9288;SDS011;4683;50.864;12.086;2023-08-06T12:47:52;3.37;;;2.00;;
9288;SDS011;4683;50.864;12.086;2023-08-06T12:50:25;2.00;;;1.80;;
9288;SDS011;4683;50.864;12.086;2023-08-06T12:53:08;2.30;;;2.00;;
9288;SDS011;4683;50.864;12.086;2023-08-06T12:55:44;2.37;;;1.80;;
9288;SDS011;4683;50.864;12.086;2023-08-06T12:58:25;2.20;;;1.93;;
9288;SDS011;4683;50.864;12.086;2023-08-06T13:01:06;2.90;;;1.80;;
9288;SDS011;4683;50.864;12.086;2023-08-06T13:03:48;1.63;;;1.50;;
9288;SDS011;4683;50.864;12.086;2023-08-06T13:06:18;4.77;;;2.80;;
9288;SDS011;4683;50.864;12.086;2023-08-06T13:08:48;2.67;;;2.00;;
9288;SDS011;4683;50.864;12.086;2023-08-06T13:11:26;3.77;;;3.43;;
9288;SDS011;4683;50.864;12.086;2023-08-06T13:14:04;2.67;;;2.43;;
9288;SDS011;4683;50.864;12.086;2023-08-06T13:16:42;2.83;;;2.63;;
9288;SDS011;4683;50.864;12.086;2023-08-06T13:19:22;2.40;;;2.20;;
9288;SDS011;4683;50.864;12.086;2023-08-06T13:22:01;2.10;;;1.90;;
9288;SDS011;4683;50.864;12.086;2023-08-06T13:24:41;2.00;;;1.90;;
9288;SDS011;4683;50.864;12.086;2023-08-06T13:27:14;2.87;;;2.33;;
9288;SDS011;4683;50.864;12.086;2023-08-06T13:29:52;2.47;;;2.10;;
9288;SDS011;4683;50.864;12.086;2023-08-06T13:32:29;3.33;;;2.10;;
9288;SDS011;4683;50.864;12.086;2023-08-06T13:35:06;2.30;;;2.10;;
9288;SDS011;4683;50.864;12.086;2023-08-06T13:37:39;2.00;;;1.90;;
9288;SDS011;4683;50.864;12.086;2023-08-06T13:40:10;2.20;;;2.10;;
9288;SDS011;4683;50.864;12.086;2023-08-06T13:42:50;2.00;;;1.90;;
9288;SDS011;4683;50.864;12.086;2023-08-06T13:45:28;2.83;;;2.23;;
9288;SDS011;4683;50.864;12.086;2023-08-06T13:48:08;2.57;;;2.37;;
9288;SDS011;4683;50.864;12.086;2023-08-06T13:50:45;2.17;;;2.07;;
9288;SDS011;4683;50.864;12.086;2023-08-06T13:53:14;2.50;;;1.97;;
9288;SDS011;4683;50.864;12.086;2023-08-06T13:55:46;2.57;;;2.37;;
9288;SDS011;4683;50.864;12.086;2023-08-06T13:58:24;3.03;;;2.70;;
9288;SDS011;4683;50.864;12.086;2023-08-06T14:00:59;2.10;;;2.00;;
9288;SDS011;4683;50.864;12.086;2023-08-06T14:03:35;2.10;;;2.00;;
9288;SDS011;4683;50.864;12.086;2023-08-06T14:06:16;2.40;;;2.20;;
9288;SDS011;4683;50.864;12.086;2023-08-06T14:08:53;2.00;;;1.83;;
9288;SDS011;4683;50.864;12.086;2023-08-06T14:11:32;2.30;;;2.10;;
9288;SDS011;4683;50.864;12.086;2023-08-06T14:14:02;2.23;;;1.80;;
9288;SDS011;4683;50.864;12.086;2023-08-06T14:16:35;3.43;;;2.40;;
9288;SDS011;4683;50.864;12.086;2023-08-06T14:19:13;3.33;;;2.83;;
9288;SDS011;4683;50.864;12.086;2023-08-06T14:21:51;3.43;;;2.40;;
9288;SDS011;4683;50.864;12.086;2023-08-06T14:24:25;3.20;;;2.10;;
9288;SDS011;4683;50.864;12.086;2023-08-06T14:27:06;2.67;;;2.47;;
9288;SDS011;4683;50.864;12.086;2023-08-06T14:29:44;3.40;;;2.50;;
9288;SDS011;4683;50.864;12.086;2023-08-06T14:32:22;2.37;;;2.10;;
9288;SDS011;4683;50.864;12.086;2023-08-06T14:34:59;2.70;;;2.20;;
9288;SDS011;4683;50.864;12.086;2023-08-06T14:37:32;3.17;;;2.70;;
9288;SDS011;4683;50.864;12.086;2023-08-06T14:40:07;3.57;;;2.70;;
9288;SDS011;4683;50.864;12.086;2023-08-06T14:42:44;2.90;;;2.47;;
9288;SDS011;4683;50.864;12.086;2023-08-06T14:45:24;2.20;;;2.10;;
9288;SDS011;4683;50.864;12.086;2023-08-06T14:48:02;2.60;;;2.40;;
9288;SDS011;4683;50.864;12.086;2023-08-06T14:50:42;2.63;;;2.43;;
9288;SDS011;4683;50.864;12.086;2023-08-06T14:53:25;2.50;;;2.30;;
9288;SDS011;4683;50.864;12.086;2023-08-06T14:55:59;1.90;;;1.80;;
9288;SDS011;4683;50.864;12.086;2023-08-06T14:58:40;2.13;;;2.00;;
9288;SDS011;4683;50.864;12.086;2023-08-06T15:01:17;1.80;;;1.70;;
9288;SDS011;4683;50.864;12.086;2023-08-06T15:03:58;3.10;;;1.60;;
9288;SDS011;4683;50.864;12.086;2023-08-06T15:06:35;1.50;;;1.40;;
9288;SDS011;4683;50.864;12.086;2023-08-06T15:09:06;1.30;;;1.23;;
9288;SDS011;4683;50.864;12.086;2023-08-06T15:11:47;1.43;;;1.33;;
9288;SDS011;4683;50.864;12.086;2023-08-06T15:14:25;1.43;;;1.27;;
9288;SDS011;4683;50.864;12.086;2023-08-06T15:17:01;1.77;;;1.07;;
9288;SDS011;4683;50.864;12.086;2023-08-06T15:19:33;1.20;;;1.10;;
9288;SDS011;4683;50.864;12.086;2023-08-06T15:22:13;1.20;;;1.10;;
9288;SDS011;4683;50.864;12.086;2023-08-06T15:24:50;1.67;;;1.20;;
9288;SDS011;4683;50.864;12.086;2023-08-06T15:27:28;1.23;;;1.13;;
9288;SDS011;4683;50.864;12.086;2023-08-06T15:30:11;1.87;;;1.27;;
9288;SDS011;4683;50.864;12.086;2023-08-06T15:32:51;1.13;;;1.03;;
9288;SDS011;4683;50.864;12.086;2023-08-06T15:35:32;1.23;;;1.13;;
9288;SDS011;4683;50.864;12.086;2023-08-06T15:38:11;1.80;;;1.67;;
9288;SDS011;4683;50.864;12.086;2023-08-06T15:40:54;1.30;;;1.20;;
9288;SDS011;4683;50.864;12.086;2023-08-06T15:43:32;2.10;;;1.80;;
9288;SDS011;4683;50.864;12.086;2023-08-06T15:46:07;2.10;;;1.90;;
9288;SDS011;4683;50.864;12.086;2023-08-06T15:48:49;2.20;;;2.00;;
9288;SDS011;4683;50.864;12.086;2023-08-06T15:51:21;2.57;;;1.80;;
9288;SDS011;4683;50.864;12.086;2023-08-06T15:54:08;2.20;;;2.00;;
9288;SDS011;4683;50.864;12.086;2023-08-06T15:56:44;1.93;;;1.80;;
9288;SDS011;4683;50.864;12.086;2023-08-06T15:59:21;2.00;;;1.90;;
9288;SDS011;4683;50.864;12.086;2023-08-06T16:01:58;2.33;;;2.13;;